sensor_id;sensor_type;location;lat;lon;timestamp;pressure;altitude;pressure_sealevel;temperature;humidity
74895;BME280;63447;49.446;8.666;2023-12-28T00:01:32;100398.69;;;7.53;63.78
74895;BME280;63447;49.446;8.666;2023-12-28T00:03:57;100416.28;;;7.52;63.67
74895;BME280;63447;49.446;8.666;2023-12-28T00:06:25;100419.78;;;7.66;62.15
74895;BME280;63447;49.446;8.666;2023-12-28T00:08:50;100418.56;;;7.58;62.58
74895;BME280;63447;49.446;8.666;2023-12-28T00:11:18;100394.78;;;7.54;62.74
74895;BME280;63447;49.446;8.666;2023-12-28T00:13:43;100433.81;;;7.64;62.74
74895;BME280;63447;49.446;8.666;2023-12-28T00:16:08;100445.41;;;7.61;62.36
74895;BME280;63447;49.446;8.666;2023-12-28T00:18:34;100410.53;;;7.39;63.48
74895;BME280;63447;49.446;8.666;2023-12-28T00:21:01;100408.97;;;7.47;62.20
74895;BME280;63447;49.446;8.666;2023-12-28T00:23:27;100428.09;;;7.52;62.63
74895;BME280;63447;49.446;8.666;2023-12-28T00:25:52;100420.81;;;7.56;62.18
74895;BME280;63447;49.446;8.666;2023-12-28T00:28:20;100432.94;;;7.55;61.99
74895;BME280;63447;49.446;8.666;2023-12-28T00:30:45;100424.69;;;7.55;62.81
74895;BME280;63447;49.446;8.666;2023-12-28T00:33:16;100430.00;;;7.52;63.03
74895;BME280;63447;49.446;8.666;2023-12-28T00:35:44;100438.66;;;7.45;62.94
74895;BME280;63447;49.446;8.666;2023-12-28T00:38:09;100440.28;;;7.46;62.86
74895;BME280;63447;49.446;8.666;2023-12-28T00:40:37;100394.34;;;7.38;63.03
74895;BME280;63447;49.446;8.666;2023-12-28T00:43:06;100423.75;;;7.37;63.25
74895;BME280;63447;49.446;8.666;2023-12-28T00:45:32;100428.09;;;7.38;62.90
74895;BME280;63447;49.446;8.666;2023-12-28T00:47:59;100421.69;;;7.43;62.91
74895;BME280;63447;49.446;8.666;2023-12-28T00:50:25;100414.66;;;7.51;61.85
74895;BME280;63447;49.446;8.666;2023-12-28T00:52:54;100420.28;;;7.45;62.05
74895;BME280;63447;49.446;8.666;2023-12-28T00:55:20;100418.75;;;7.39;62.40
74895;BME280;63447;49.446;8.666;2023-12-28T00:57:45;100416.63;;;7.36;63.05
74895;BME280;63447;49.446;8.666;2023-12-28T01:00:13;100384.88;;;7.22;63.62
74895;BME280;63447;49.446;8.666;2023-12-28T01:02:41;100415.81;;;7.36;62.75
74895;BME280;63447;49.446;8.666;2023-12-28T01:05:07;100403.81;;;7.32;63.60
74895;BME280;63447;49.446;8.666;2023-12-28T01:07:32;100410.94;;;7.33;63.10
74895;BME280;63447;49.446;8.666;2023-12-28T01:09:58;100413.47;;;7.43;62.37
74895;BME280;63447;49.446;8.666;2023-12-28T01:12:23;100426.19;;;7.39;62.80
74895;BME280;63447;49.446;8.666;2023-12-28T01:14:48;100409.81;;;7.34;63.52
74895;BME280;63447;49.446;8.666;2023-12-28T01:17:14;100438.38;;;7.33;62.75
74895;BME280;63447;49.446;8.666;2023-12-28T01:19:39;100445.09;;;7.40;62.98
74895;BME280;63447;49.446;8.666;2023-12-28T01:22:04;100445.59;;;7.42;62.87
74895;BME280;63447;49.446;8.666;2023-12-28T01:24:30;100468.06;;;7.44;62.83
74895;BME280;63447;49.446;8.666;2023-12-28T01:26:57;100445.59;;;7.29;62.90
74895;BME280;63447;49.446;8.666;2023-12-28T01:29:23;100453.31;;;7.40;63.04
74895;BME280;63447;49.446;8.666;2023-12-28T01:31:50;100446.00;;;7.36;62.57
74895;BME280;63447;49.446;8.666;2023-12-28T01:34:16;100434.91;;;7.41;62.14
74895;BME280;63447;49.446;8.666;2023-12-28T01:36:43;100463.28;;;7.50;62.28
74895;BME280;63447;49.446;8.666;2023-12-28T01:39:09;100445.69;;;7.51;62.43
74895;BME280;63447;49.446;8.666;2023-12-28T01:41:40;100452.44;;;7.54;62.13
74895;BME280;63447;49.446;8.666;2023-12-28T01:44:06;100456.59;;;7.65;62.18
74895;BME280;63447;49.446;8.666;2023-12-28T01:46:34;100439.31;;;7.87;59.97
74895;BME280;63447;49.446;8.666;2023-12-28T01:48:59;100418.16;;;7.87;59.68
74895;BME280;63447;49.446;8.666;2023-12-28T01:51:29;100444.69;;;7.92;59.97
74895;BME280;63447;49.446;8.666;2023-12-28T01:53:59;100454.44;;;7.98;59.80
74895;BME280;63447;49.446;8.666;2023-12-28T01:56:25;100446.13;;;7.89;59.90
74895;BME280;63447;49.446;8.666;2023-12-28T01:58:50;100460.75;;;7.98;59.41
74895;BME280;63447;49.446;8.666;2023-12-28T02:01:20;100455.97;;;8.12;58.76
74895;BME280;63447;49.446;8.666;2023-12-28T02:03:48;100469.09;;;8.15;58.79
74895;BME280;63447;49.446;8.666;2023-12-28T02:06:14;100470.72;;;8.16;58.89
74895;BME280;63447;49.446;8.666;2023-12-28T02:08:41;100468.47;;;8.18;58.42
74895;BME280;63447;49.446;8.666;2023-12-28T02:11:07;100464.72;;;8.14;58.86
74895;BME280;63447;49.446;8.666;2023-12-28T02:13:32;100471.84;;;8.15;58.21
74895;BME280;63447;49.446;8.666;2023-12-28T02:16:03;100472.97;;;8.14;58.97
74895;BME280;63447;49.446;8.666;2023-12-28T02:18:34;100464.09;;;8.17;58.65
74895;BME280;63447;49.446;8.666;2023-12-28T02:21:02;100464.91;;;8.18;58.18
74895;BME280;63447;49.446;8.666;2023-12-28T02:23:27;100484.34;;;8.22;58.97
74895;BME280;63447;49.446;8.666;2023-12-28T02:25:53;100484.16;;;8.18;58.31
74895;BME280;63447;49.446;8.666;2023-12-28T02:28:20;100481.28;;;8.23;58.45
74895;BME280;63447;49.446;8.666;2023-12-28T02:30:46;100487.16;;;8.30;58.10
74895;BME280;63447;49.446;8.666;2023-12-28T02:33:36;100489.16;;;8.38;57.48
74895;BME280;63447;49.446;8.666;2023-12-28T02:36:08;100472.53;;;8.43;56.61
74895;BME280;63447;49.446;8.666;2023-12-28T02:38:36;100475.34;;;8.52;56.24
74895;BME280;63447;49.446;8.666;2023-12-28T02:41:03;100470.53;;;8.66;56.35
74895;BME280;63447;49.446;8.666;2023-12-28T02:43:29;100483.84;;;8.73;56.36
74895;BME280;63447;49.446;8.666;2023-12-28T02:45:54;100466.22;;;8.74;56.11
74895;BME280;63447;49.446;8.666;2023-12-28T02:48:20;100468.19;;;8.82;55.55
74895;BME280;63447;49.446;8.666;2023-12-28T02:50:45;100463.03;;;8.89;54.67
74895;BME280;63447;49.446;8.666;2023-12-28T02:53:15;100466.41;;;8.86;55.36
74895;BME280;63447;49.446;8.666;2023-12-28T02:55:41;100472.56;;;8.83;55.22
74895;BME280;63447;49.446;8.666;2023-12-28T02:58:08;100468.03;;;8.78;55.45
74895;BME280;63447;49.446;8.666;2023-12-28T03:00:38;100457.19;;;8.82;54.66
74895;BME280;63447;49.446;8.666;2023-12-28T03:03:06;100463.84;;;8.90;55.39
74895;BME280;63447;49.446;8.666;2023-12-28T03:05:33;100460.09;;;8.77;55.35
74895;BME280;63447;49.446;8.666;2023-12-28T03:07:59;100455.56;;;8.81;55.79
74895;BME280;63447;49.446;8.666;2023-12-28T03:10:27;100456.03;;;8.74;55.79
74895;BME280;63447;49.446;8.666;2023-12-28T03:12:52;100459.44;;;8.80;54.85
74895;BME280;63447;49.446;8.666;2023-12-28T03:15:20;100462.69;;;8.82;55.60
74895;BME280;63447;49.446;8.666;2023-12-28T03:17:45;100461.41;;;8.88;55.60
74895;BME280;63447;49.446;8.666;2023-12-28T03:20:10;100457.34;;;8.77;55.04
74895;BME280;63447;49.446;8.666;2023-12-28T03:22:36;100482.91;;;8.86;55.10
74895;BME280;63447;49.446;8.666;2023-12-28T03:25:01;100482.59;;;8.79;55.74
74895;BME280;63447;49.446;8.666;2023-12-28T03:27:27;100488.28;;;8.82;55.18
74895;BME280;63447;49.446;8.666;2023-12-28T03:29:52;100480.66;;;8.79;55.97
74895;BME280;63447;49.446;8.666;2023-12-28T03:32:18;100462.69;;;8.82;56.17
74895;BME280;63447;49.446;8.666;2023-12-28T03:34:43;100488.41;;;8.77;57.29
74895;BME280;63447;49.446;8.666;2023-12-28T03:37:11;100485.34;;;8.79;56.97
74895;BME280;63447;49.446;8.666;2023-12-28T03:39:37;100483.22;;;8.76;57.17
74895;BME280;63447;49.446;8.666;2023-12-28T03:42:04;100472.84;;;8.73;57.57
74895;BME280;63447;49.446;8.666;2023-12-28T03:44:30;100474.41;;;8.65;56.81
74895;BME280;63447;49.446;8.666;2023-12-28T03:46:58;100472.22;;;8.76;56.27
74895;BME280;63447;49.446;8.666;2023-12-28T03:49:25;100457.47;;;8.72;56.70
74895;BME280;63447;49.446;8.666;2023-12-28T03:51:53;100459.78;;;8.78;56.77
74895;BME280;63447;49.446;8.666;2023-12-28T03:54:19;100466.22;;;8.74;57.27
74895;BME280;63447;49.446;8.666;2023-12-28T03:56:45;100470.47;;;8.80;57.57
74895;BME280;63447;49.446;8.666;2023-12-28T03:59:11;100474.50;;;8.82;57.45
74895;BME280;63447;49.446;8.666;2023-12-28T04:01:39;100482.59;;;8.88;57.32
74895;BME280;63447;49.446;8.666;2023-12-28T04:04:07;100485.53;;;8.91;57.41
74895;BME280;63447;49.446;8.666;2023-12-28T04:06:33;100460.72;;;8.74;57.89
74895;BME280;63447;49.446;8.666;2023-12-28T04:08:59;100486.34;;;8.92;58.33
74895;BME280;63447;49.446;8.666;2023-12-28T04:11:24;100461.22;;;8.76;58.95
74895;BME280;63447;49.446;8.666;2023-12-28T04:13:52;100477.25;;;8.82;58.68
74895;BME280;63447;49.446;8.666;2023-12-28T04:16:19;100480.69;;;8.97;58.27
74895;BME280;63447;49.446;8.666;2023-12-28T04:18:47;100499.28;;;8.91;59.09
74895;BME280;63447;49.446;8.666;2023-12-28T04:21:13;100496.53;;;8.91;59.75
74895;BME280;63447;49.446;8.666;2023-12-28T04:23:39;100493.94;;;8.86;59.86
74895;BME280;63447;49.446;8.666;2023-12-28T04:26:07;100499.97;;;8.97;59.50
74895;BME280;63447;49.446;8.666;2023-12-28T04:28:33;100491.84;;;8.92;59.35
74895;BME280;63447;49.446;8.666;2023-12-28T04:31:04;100488.47;;;8.95;59.43
74895;BME280;63447;49.446;8.666;2023-12-28T04:33:31;100499.28;;;8.91;60.13
74895;BME280;63447;49.446;8.666;2023-12-28T04:36:03;100501.91;;;8.96;60.20
74895;BME280;63447;49.446;8.666;2023-12-28T04:38:29;100496.53;;;8.91;61.00
74895;BME280;63447;49.446;8.666;2023-12-28T04:40:55;100516.78;;;8.95;61.75
74895;BME280;63447;49.446;8.666;2023-12-28T04:43:26;100511.28;;;8.95;61.51
74895;BME280;63447;49.446;8.666;2023-12-28T04:45:53;100525.53;;;8.97;63.33
74895;BME280;63447;49.446;8.666;2023-12-28T04:48:21;100512.59;;;8.98;63.21
74895;BME280;63447;49.446;8.666;2023-12-28T04:50:51;100505.03;;;9.03;63.99
74895;BME280;63447;49.446;8.666;2023-12-28T04:53:17;100507.91;;;8.98;64.40
74895;BME280;63447;49.446;8.666;2023-12-28T04:55:43;100526.53;;;9.01;65.41
74895;BME280;63447;49.446;8.666;2023-12-28T04:58:12;100515.31;;;8.89;66.54
74895;BME280;63447;49.446;8.666;2023-12-28T05:00:37;100517.25;;;8.89;69.10
74895;BME280;63447;49.446;8.666;2023-12-28T05:03:08;100511.59;;;8.94;72.38
74895;BME280;63447;49.446;8.666;2023-12-28T05:05:33;100526.72;;;9.05;75.39
74895;BME280;63447;49.446;8.666;2023-12-28T05:08:01;100497.44;;;9.09;78.17
74895;BME280;63447;49.446;8.666;2023-12-28T05:10:29;100516.22;;;9.07;80.31
74895;BME280;63447;49.446;8.666;2023-12-28T05:12:56;100518.50;;;9.22;80.84
74895;BME280;63447;49.446;8.666;2023-12-28T05:15:22;100499.03;;;9.10;84.84
74895;BME280;63447;49.446;8.666;2023-12-28T05:17:47;100542.28;;;9.09;87.50
74895;BME280;63447;49.446;8.666;2023-12-28T05:20:15;100534.81;;;9.01;89.25
74895;BME280;63447;49.446;8.666;2023-12-28T05:22:43;100542.41;;;9.04;92.03
74895;BME280;63447;49.446;8.666;2023-12-28T05:25:11;100549.56;;;9.05;95.67
74895;BME280;63447;49.446;8.666;2023-12-28T05:27:38;100532.94;;;8.88;97.95
74895;BME280;63447;49.446;8.666;2023-12-28T05:30:08;100544.13;;;8.92;99.11
74895;BME280;63447;49.446;8.666;2023-12-28T05:32:35;100547.06;;;8.95;99.94
74895;BME280;63447;49.446;8.666;2023-12-28T05:35:03;100551.25;;;8.93;100.00
74895;BME280;63447;49.446;8.666;2023-12-28T05:37:29;100553.75;;;9.03;99.44
74895;BME280;63447;49.446;8.666;2023-12-28T05:39:54;100550.94;;;8.94;100.00
74895;BME280;63447;49.446;8.666;2023-12-28T05:42:22;100528.88;;;8.85;100.00
74895;BME280;63447;49.446;8.666;2023-12-28T05:44:48;100535.19;;;8.86;100.00
74895;BME280;63447;49.446;8.666;2023-12-28T05:47:16;100545.88;;;8.88;100.00
74895;BME280;63447;49.446;8.666;2023-12-28T05:49:41;100544.44;;;8.90;100.00
74895;BME280;63447;49.446;8.666;2023-12-28T05:52:07;100554.16;;;8.88;100.00
74895;BME280;63447;49.446;8.666;2023-12-28T05:54:32;100534.84;;;8.79;100.00
74895;BME280;63447;49.446;8.666;2023-12-28T05:56:58;100545.50;;;8.72;100.00
74895;BME280;63447;49.446;8.666;2023-12-28T05:59:25;100548.00;;;8.60;100.00
74895;BME280;63447;49.446;8.666;2023-12-28T06:01:51;100535.66;;;8.48;100.00
74895;BME280;63447;49.446;8.666;2023-12-28T06:04:17;100536.72;;;8.39;100.00
74895;BME280;63447;49.446;8.666;2023-12-28T06:06:45;100533.69;;;8.27;100.00
74895;BME280;63447;49.446;8.666;2023-12-28T06:09:15;100545.38;;;8.32;100.00
74895;BME280;63447;49.446;8.666;2023-12-28T06:11:40;100541.00;;;8.31;100.00
74895;BME280;63447;49.446;8.666;2023-12-28T06:14:05;100545.13;;;8.20;100.00
74895;BME280;63447;49.446;8.666;2023-12-28T06:16:31;100534.75;;;8.17;100.00
74895;BME280;63447;49.446;8.666;2023-12-28T06:19:03;100557.56;;;8.17;100.00
74895;BME280;63447;49.446;8.666;2023-12-28T06:21:31;100556.97;;;8.07;100.00
74895;BME280;63447;49.446;8.666;2023-12-28T06:23:59;100562.84;;;8.14;100.00
74895;BME280;63447;49.446;8.666;2023-12-28T06:26:24;100569.75;;;8.25;100.00
74895;BME280;63447;49.446;8.666;2023-12-28T06:28:50;100577.50;;;8.23;100.00
74895;BME280;63447;49.446;8.666;2023-12-28T06:31:15;100568.53;;;8.17;100.00
74895;BME280;63447;49.446;8.666;2023-12-28T06:33:40;100569.34;;;8.18;100.00
74895;BME280;63447;49.446;8.666;2023-12-28T06:36:09;100567.22;;;8.15;100.00
74895;BME280;63447;49.446;8.666;2023-12-28T06:38:37;100574.34;;;8.16;100.00
74895;BME280;63447;49.446;8.666;2023-12-28T06:41:09;100576.28;;;8.15;100.00
74895;BME280;63447;49.446;8.666;2023-12-28T06:43:35;100588.88;;;8.30;100.00
74895;BME280;63447;49.446;8.666;2023-12-28T06:46:03;100575.63;;;8.32;100.00
74895;BME280;63447;49.446;8.666;2023-12-28T06:48:28;100589.38;;;8.32;100.00
74895;BME280;63447;49.446;8.666;2023-12-28T06:50:56;100580.00;;;8.33;100.00
74895;BME280;63447;49.446;8.666;2023-12-28T06:53:21;100563.13;;;8.26;100.00
74895;BME280;63447;49.446;8.666;2023-12-28T06:55:47;100565.25;;;8.29;100.00
74895;BME280;63447;49.446;8.666;2023-12-28T06:58:14;100574.69;;;8.37;100.00
74895;BME280;63447;49.446;8.666;2023-12-28T07:00:39;100568.38;;;8.36;100.00
74895;BME280;63447;49.446;8.666;2023-12-28T07:03:06;100570.50;;;8.39;100.00
74895;BME280;63447;49.446;8.666;2023-12-28T07:05:34;100578.66;;;8.44;100.00
74895;BME280;63447;49.446;8.666;2023-12-28T07:08:02;100571.31;;;8.40;100.00
74895;BME280;63447;49.446;8.666;2023-12-28T07:10:28;100567.25;;;8.37;100.00
74895;BME280;63447;49.446;8.666;2023-12-28T07:12:53;100567.06;;;8.34;100.00
74895;BME280;63447;49.446;8.666;2023-12-28T07:15:18;100571.75;;;8.33;100.00
74895;BME280;63447;49.446;8.666;2023-12-28T07:17:48;100576.31;;;8.38;100.00
74895;BME280;63447;49.446;8.666;2023-12-28T07:20:13;100578.06;;;8.34;100.00
74895;BME280;63447;49.446;8.666;2023-12-28T07:22:39;100572.75;;;8.37;100.00
74895;BME280;63447;49.446;8.666;2023-12-28T07:25:07;100577.25;;;8.33;100.00
74895;BME280;63447;49.446;8.666;2023-12-28T07:27:36;100591.28;;;8.45;100.00
74895;BME280;63447;49.446;8.666;2023-12-28T07:30:05;100605.53;;;8.47;100.00
74895;BME280;63447;49.446;8.666;2023-12-28T07:32:33;100564.50;;;8.37;100.00
74895;BME280;63447;49.446;8.666;2023-12-28T07:35:03;100604.91;;;8.50;100.00
74895;BME280;63447;49.446;8.666;2023-12-28T07:37:31;100582.56;;;8.30;100.00
74895;BME280;63447;49.446;8.666;2023-12-28T07:39:59;100613.28;;;8.45;100.00
74895;BME280;63447;49.446;8.666;2023-12-28T07:42:24;100622.03;;;8.47;100.00
74895;BME280;63447;49.446;8.666;2023-12-28T07:44:52;100612.16;;;8.46;100.00
74895;BME280;63447;49.446;8.666;2023-12-28T07:47:18;100613.97;;;8.51;100.00
74895;BME280;63447;49.446;8.666;2023-12-28T07:49:43;100619.97;;;8.53;100.00
74895;BME280;63447;49.446;8.666;2023-12-28T07:52:13;100624.34;;;8.54;100.00
74895;BME280;63447;49.446;8.666;2023-12-28T07:54:43;100612.47;;;8.45;100.00
74895;BME280;63447;49.446;8.666;2023-12-28T07:57:11;100602.88;;;8.42;100.00
74895;BME280;63447;49.446;8.666;2023-12-28T07:59:36;100594.34;;;8.44;100.00
74895;BME280;63447;49.446;8.666;2023-12-28T08:02:08;100618.66;;;8.73;100.00
74895;BME280;63447;49.446;8.666;2023-12-28T08:04:33;100612.75;;;8.66;100.00
74895;BME280;63447;49.446;8.666;2023-12-28T08:06:59;100620.69;;;8.67;100.00
74895;BME280;63447;49.446;8.666;2023-12-28T08:09:27;100602.03;;;8.56;100.00
74895;BME280;63447;49.446;8.666;2023-12-28T08:11:56;100604.81;;;8.64;100.00
74895;BME280;63447;49.446;8.666;2023-12-28T08:14:22;100623.53;;;8.76;100.00
74895;BME280;63447;49.446;8.666;2023-12-28T08:16:47;100622.28;;;8.82;100.00
74895;BME280;63447;49.446;8.666;2023-12-28T08:19:16;100616.13;;;8.85;100.00
74895;BME280;63447;49.446;8.666;2023-12-28T08:21:41;100606.59;;;8.82;100.00
74895;BME280;63447;49.446;8.666;2023-12-28T08:24:11;100623.13;;;8.91;100.00
74895;BME280;63447;49.446;8.666;2023-12-28T08:26:38;100632.75;;;9.02;100.00
74895;BME280;63447;49.446;8.666;2023-12-28T08:29:06;100622.88;;;9.01;100.00
74895;BME280;63447;49.446;8.666;2023-12-28T08:31:32;100632.63;;;9.07;100.00
74895;BME280;63447;49.446;8.666;2023-12-28T08:34:00;100622.56;;;9.03;100.00
74895;BME280;63447;49.446;8.666;2023-12-28T08:36:28;100629.72;;;9.12;100.00
74895;BME280;63447;49.446;8.666;2023-12-28T08:38:53;100629.22;;;9.10;100.00
74895;BME280;63447;49.446;8.666;2023-12-28T08:41:22;100618.38;;;9.05;100.00
74895;BME280;63447;49.446;8.666;2023-12-28T08:43:49;100636.03;;;9.13;100.00
74895;BME280;63447;49.446;8.666;2023-12-28T08:46:20;100622.13;;;9.09;100.00
74895;BME280;63447;49.446;8.666;2023-12-28T08:48:55;100606.22;;;9.06;100.00
74895;BME280;63447;49.446;8.666;2023-12-28T08:51:26;100606.44;;;9.18;99.19
74895;BME280;63447;49.446;8.666;2023-12-28T08:53:52;100636.59;;;9.24;100.00
74895;BME280;63447;49.446;8.666;2023-12-28T08:56:21;100609.09;;;9.01;100.00
74895;BME280;63447;49.446;8.666;2023-12-28T08:58:47;100640.59;;;9.17;100.00
74895;BME280;63447;49.446;8.666;2023-12-28T09:01:22;100627.63;;;9.09;100.00
74895;BME280;63447;49.446;8.666;2023-12-28T09:03:53;100627.94;;;9.08;100.00
74895;BME280;63447;49.446;8.666;2023-12-28T09:06:24;100643.94;;;9.06;100.00
74895;BME280;63447;49.446;8.666;2023-12-28T09:08:52;100638.75;;;9.04;100.00
74895;BME280;63447;49.446;8.666;2023-12-28T09:11:20;100628.25;;;9.06;100.00
74895;BME280;63447;49.446;8.666;2023-12-28T09:13:48;100633.88;;;9.01;100.00
74895;BME280;63447;49.446;8.666;2023-12-28T09:16:14;100640.38;;;9.05;100.00
74895;BME280;63447;49.446;8.666;2023-12-28T09:18:40;100643.94;;;9.06;100.00
74895;BME280;63447;49.446;8.666;2023-12-28T09:21:07;100636.84;;;9.13;100.00
74895;BME280;63447;49.446;8.666;2023-12-28T09:23:35;100633.75;;;9.06;100.00
74895;BME280;63447;49.446;8.666;2023-12-28T09:26:05;100648.31;;;9.07;100.00
74895;BME280;63447;49.446;8.666;2023-12-28T09:28:31;100635.00;;;9.00;100.00
74895;BME280;63447;49.446;8.666;2023-12-28T09:31:01;100642.06;;;8.93;100.00
74895;BME280;63447;49.446;8.666;2023-12-28T09:33:27;100649.94;;;9.08;100.00
74895;BME280;63447;49.446;8.666;2023-12-28T09:35:53;100659.34;;;9.07;100.00
74895;BME280;63447;49.446;8.666;2023-12-28T09:38:20;100662.59;;;9.09;100.00
74895;BME280;63447;49.446;8.666;2023-12-28T09:40:53;100664.66;;;9.03;100.00
74895;BME280;63447;49.446;8.666;2023-12-28T09:43:22;100651.31;;;8.97;100.00
74895;BME280;63447;49.446;8.666;2023-12-28T09:45:49;100675.53;;;9.08;100.00
74895;BME280;63447;49.446;8.666;2023-12-28T09:48:21;100668.84;;;9.01;100.00
74895;BME280;63447;49.446;8.666;2023-12-28T09:50:54;100681.38;;;9.15;100.00
74895;BME280;63447;49.446;8.666;2023-12-28T09:53:23;100656.59;;;9.07;100.00
74895;BME280;63447;49.446;8.666;2023-12-28T09:55:50;100650.81;;;8.95;100.00
74895;BME280;63447;49.446;8.666;2023-12-28T09:58:19;100646.25;;;8.90;100.00
74895;BME280;63447;49.446;8.666;2023-12-28T10:00:50;100650.75;;;8.86;100.00
74895;BME280;63447;49.446;8.666;2023-12-28T10:03:23;100649.44;;;8.83;100.00
74895;BME280;63447;49.446;8.666;2023-12-28T10:05:48;100649.22;;;8.71;100.00
74895;BME280;63447;49.446;8.666;2023-12-28T10:08:16;100651.53;;;8.78;100.00
74895;BME280;63447;49.446;8.666;2023-12-28T10:10:43;100661.66;;;8.69;100.00
74895;BME280;63447;49.446;8.666;2023-12-28T10:13:09;100650.78;;;8.64;100.00
74895;BME280;63447;49.446;8.666;2023-12-28T10:15:40;100639.06;;;8.58;100.00
74895;BME280;63447;49.446;8.666;2023-12-28T10:18:08;100644.25;;;8.60;100.00
74895;BME280;63447;49.446;8.666;2023-12-28T10:20:36;100641.00;;;8.58;100.00
74895;BME280;63447;49.446;8.666;2023-12-28T10:23:02;100646.41;;;8.63;100.00
74895;BME280;63447;49.446;8.666;2023-12-28T10:25:28;100637.13;;;8.59;100.00
74895;BME280;63447;49.446;8.666;2023-12-28T10:27:56;100628.72;;;8.55;100.00
74895;BME280;63447;49.446;8.666;2023-12-28T10:30:21;100639.78;;;8.64;100.00
74895;BME280;63447;49.446;8.666;2023-12-28T10:32:51;100632.31;;;8.64;100.00
74895;BME280;63447;49.446;8.666;2023-12-28T10:35:17;100622.31;;;8.68;100.00
74895;BME280;63447;49.446;8.666;2023-12-28T10:37:43;100633.91;;;8.79;100.00
74895;BME280;63447;49.446;8.666;2023-12-28T10:40:13;100635.84;;;8.78;100.00
74895;BME280;63447;49.446;8.666;2023-12-28T10:42:49;100625.38;;;8.89;100.00
74895;BME280;63447;49.446;8.666;2023-12-28T10:45:19;100622.94;;;8.88;100.00
74895;BME280;63447;49.446;8.666;2023-12-28T10:48:11;100624.25;;;8.90;100.00
74895;BME280;63447;49.446;8.666;2023-12-28T10:59:31;100626.75;;;9.00;100.00
74895;BME280;63447;49.446;8.666;2023-12-28T11:01:40;100610.38;;;8.95;100.00
74895;BME280;63447;49.446;8.666;2023-12-28T11:04:27;100629.88;;;9.07;100.00
74895;BME280;63447;49.446;8.666;2023-12-28T11:06:58;100626.63;;;9.05;100.00
74895;BME280;63447;49.446;8.666;2023-12-28T11:09:24;100619.44;;;8.96;99.96
74895;BME280;63447;49.446;8.666;2023-12-28T11:11:51;100630.84;;;9.11;98.00
74895;BME280;63447;49.446;8.666;2023-12-28T11:14:19;100617.81;;;8.95;97.16
74895;BME280;63447;49.446;8.666;2023-12-28T11:16:48;100613.84;;;9.09;96.21
74895;BME280;63447;49.446;8.666;2023-12-28T11:19:16;100617.25;;;9.06;95.29
74895;BME280;63447;49.446;8.666;2023-12-28T11:21:44;100612.34;;;9.03;94.38
74895;BME280;63447;49.446;8.666;2023-12-28T11:24:15;100603.41;;;8.98;93.31
74895;BME280;63447;49.446;8.666;2023-12-28T11:26:52;100613.16;;;9.04;92.59
74895;BME280;63447;49.446;8.666;2023-12-28T11:29:20;100603.91;;;9.00;92.19
74895;BME280;63447;49.446;8.666;2023-12-28T11:31:54;100580.66;;;8.83;92.37
74895;BME280;63447;49.446;8.666;2023-12-28T11:34:25;100594.09;;;8.85;92.17
74895;BME280;63447;49.446;8.666;2023-12-28T11:36:52;100594.75;;;8.82;92.23
74895;BME280;63447;49.446;8.666;2023-12-28T11:39:29;100596.63;;;8.73;93.05
74895;BME280;63447;49.446;8.666;2023-12-28T11:42:08;100604.75;;;8.78;93.51
74895;BME280;63447;49.446;8.666;2023-12-28T11:44:45;100589.25;;;8.60;93.54
74895;BME280;63447;49.446;8.666;2023-12-28T11:47:24;100594.44;;;8.61;95.80
74895;BME280;63447;49.446;8.666;2023-12-28T11:49:50;100594.00;;;8.68;95.92
74895;BME280;63447;49.446;8.666;2023-12-28T11:52:27;100608.50;;;8.60;98.20
74895;BME280;63447;49.446;8.666;2023-12-28T11:54:57;100593.28;;;8.54;99.41
74895;BME280;63447;49.446;8.666;2023-12-28T11:57:25;100586.97;;;8.53;100.00
74895;BME280;63447;49.446;8.666;2023-12-28T11:59:56;100571.63;;;8.38;99.71
74895;BME280;63447;49.446;8.666;2023-12-28T12:02:22;100566.88;;;8.30;100.00
74895;BME280;63447;49.446;8.666;2023-12-28T12:04:49;100583.13;;;8.40;100.00
74895;BME280;63447;49.446;8.666;2023-12-28T12:07:14;100581.50;;;8.39;100.00
74895;BME280;63447;49.446;8.666;2023-12-28T12:09:40;100575.44;;;8.29;100.00
74895;BME280;63447;49.446;8.666;2023-12-28T12:12:06;100570.06;;;8.24;100.00
74895;BME280;63447;49.446;8.666;2023-12-28T12:14:34;100566.00;;;8.21;100.00
74895;BME280;63447;49.446;8.666;2023-12-28T12:16:59;100574.84;;;8.18;100.00
74895;BME280;63447;49.446;8.666;2023-12-28T12:19:28;100575.13;;;8.30;100.00
74895;BME280;63447;49.446;8.666;2023-12-28T12:21:55;100580.34;;;8.18;100.00
74895;BME280;63447;49.446;8.666;2023-12-28T12:24:21;100572.84;;;8.10;100.00
74895;BME280;63447;49.446;8.666;2023-12-28T12:26:47;100564.28;;;8.11;100.00
74895;BME280;63447;49.446;8.666;2023-12-28T12:29:13;100557.41;;;8.00;100.00
74895;BME280;63447;49.446;8.666;2023-12-28T12:31:42;100566.09;;;7.94;100.00
74895;BME280;63447;49.446;8.666;2023-12-28T12:34:09;100555.81;;;7.86;100.00
74895;BME280;63447;49.446;8.666;2023-12-28T12:36:37;100526.06;;;7.65;100.00
74895;BME280;63447;49.446;8.666;2023-12-28T12:39:04;100547.78;;;7.89;100.00
74895;BME280;63447;49.446;8.666;2023-12-28T12:41:33;100553.56;;;7.88;100.00
74895;BME280;63447;49.446;8.666;2023-12-28T12:43:59;100549.81;;;7.83;100.00
74895;BME280;63447;49.446;8.666;2023-12-28T12:46:27;100555.06;;;7.71;100.00
74895;BME280;63447;49.446;8.666;2023-12-28T12:48:57;100525.56;;;7.63;100.00
74895;BME280;63447;49.446;8.666;2023-12-28T12:51:25;100548.69;;;7.84;100.00
74895;BME280;63447;49.446;8.666;2023-12-28T12:54:00;100519.44;;;7.66;100.00
74895;BME280;63447;49.446;8.666;2023-12-28T12:56:29;100530.53;;;7.75;100.00
74895;BME280;63447;49.446;8.666;2023-12-28T12:58:55;100519.97;;;7.68;100.00
74895;BME280;63447;49.446;8.666;2023-12-28T13:01:22;100549.59;;;7.94;100.00
74895;BME280;63447;49.446;8.666;2023-12-28T13:03:50;100538.09;;;7.92;100.00
74895;BME280;63447;49.446;8.666;2023-12-28T13:06:15;100518.63;;;7.79;100.00